»·PEaware :: N1980 KSFO-KRNO

N1980 :: KSFO-KRNO

FLIGHT INFORMATION

Flight Status: Arrived
Operator: Privately registered:
United States
More flights under this callsign
Pilot: Max M. (20768)
Aircraft: Unknown
(E35L)
More flights by this aircraft type
Origin: KSFO San Francisco Intl
United States
Destination: KRNO Reno/Tahoe Intl
United States
More flights between these airports :: More routes between these airports
Route: TRUKN2 ORRCA TARVR SPOON
File this flight plan on PilotEdge
Remarks:
Altitude:
(Current/Filed)
19,000ft
Speed:
(Current/Filed)
315kts
Departed: 15-Oct-20 07:27 PM
Arrived: 15-Oct-20 08:12 PM
Distance/Time
Traveled:
167nm/0:44
Distance/Time
To Go:
Arrived

Flight Plot

Page will automatically refresh every two minutes.

Flight plan parsing failed; only flown route is shown


Map Options




Map Legend


Flown Route
Filed Route
Departure Airport
Arrival Airport
Navaid (VOR, NDB)
Fix

Horizontal Profiles

Position Reports

Time Latitude Longitude Heading Altitude Ground
Speed
15-Oct-20 18:58 37.634965 -122.390010 24 16ft 0kts
15-Oct-20 18:59 37.634965 -122.390010 24 16ft 0kts
15-Oct-20 19:00 37.634965 -122.390010 24 16ft 0kts
15-Oct-20 19:01 37.634965 -122.390010 24 16ft 0kts
15-Oct-20 19:02 37.634965 -122.390010 24 16ft 0kts
15-Oct-20 19:03 37.634965 -122.390010 24 16ft 0kts
15-Oct-20 19:04 37.634965 -122.390010 24 16ft 0kts
15-Oct-20 19:05 37.634965 -122.390010 24 16ft 0kts
15-Oct-20 19:06 37.634965 -122.390010 24 16ft 0kts
15-Oct-20 19:07 37.634965 -122.390010 24 16ft 0kts
15-Oct-20 19:08 37.634965 -122.390010 24 16ft 0kts
15-Oct-20 19:09 37.634965 -122.390010 24 16ft 0kts
15-Oct-20 19:10 37.634982 -122.390000 24 16ft 0kts
15-Oct-20 19:11 37.634982 -122.390000 24 16ft 0kts
15-Oct-20 19:12 37.634982 -122.390000 24 16ft 0kts
15-Oct-20 19:13 37.632925 -122.391070 19 14ft 4kts
15-Oct-20 19:14 37.630631 -122.392488 161 12ft 25kts
15-Oct-20 19:15 37.626292 -122.383843 120 11ft 38kts
15-Oct-20 19:16 37.622711 -122.375318 118 15ft 11kts
15-Oct-20 19:17 37.615726 -122.358699 118 17ft 27kts
15-Oct-20 19:18 37.615572 -122.358343 118 17ft 0kts
15-Oct-20 19:19 37.615572 -122.358343 118 17ft 0kts
15-Oct-20 19:20 37.615572 -122.358343 118 17ft 0kts
15-Oct-20 19:21 37.615572 -122.358343 118 17ft 0kts
15-Oct-20 19:22 37.615572 -122.358343 118 17ft 0kts
15-Oct-20 19:23 37.615572 -122.358343 118 17ft 0kts
15-Oct-20 19:24 37.615546 -122.358284 121 17ft 2kts
15-Oct-20 19:25 37.614445 -122.359452 293 18ft 0kts
15-Oct-20 19:26 37.618502 -122.369160 298 16ft 119kts
15-Oct-20 19:27 37.644739 -122.431967 297 678ft 236kts
15-Oct-20 19:28 37.674800 -122.504509 297 1665ft 232kts
15-Oct-20 19:29 37.709088 -122.572741 344 2621ft 232kts
15-Oct-20 19:30 37.731540 -122.519912 112 3652ft 238kts
15-Oct-20 19:31 37.705559 -122.437821 86 4578ft 259kts
15-Oct-20 19:32 37.710109 -122.344687 82 5606ft 269kts
15-Oct-20 19:33 37.715460 -122.251703 83 6793ft 262kts
15-Oct-20 19:34 37.753324 -122.182467 35 8014ft 250kts
15-Oct-20 19:35 37.811617 -122.129639 35 9246ft 277kts
15-Oct-20 19:36 37.883788 -122.064254 34 11179ft 352kts
15-Oct-20 19:37 37.964454 -121.991017 34 13182ft 360kts
15-Oct-20 19:38 38.045940 -121.916816 35 15176ft 362kts
15-Oct-20 19:39 38.127009 -121.842792 35 17157ft 358kts
15-Oct-20 19:40 38.206817 -121.769694 35 18981ft 355kts
15-Oct-20 19:41 38.292113 -121.691351 35 19017ft 400kts
15-Oct-20 19:42 38.384874 -121.605908 35 19239ft 429kts
15-Oct-20 19:43 38.453608 -121.501996 71 19055ft 397kts
15-Oct-20 19:44 38.483118 -121.369354 73 18995ft 379kts
15-Oct-20 19:45 38.511166 -121.238945 74 19001ft 382kts
15-Oct-20 19:46 38.539276 -121.107402 73 19049ft 388kts
15-Oct-20 19:47 38.567969 -120.972400 73 19136ft 396kts
15-Oct-20 19:48 38.596977 -120.835003 73 19157ft 404kts
15-Oct-20 19:49 38.626354 -120.694954 73 19156ft 410kts
15-Oct-20 19:50 38.655934 -120.553000 73 19221ft 413kts
15-Oct-20 19:51 38.685134 -120.411950 73 19156ft 406kts
15-Oct-20 19:52 38.713394 -120.274550 74 19152ft 393kts
15-Oct-20 19:53 38.740682 -120.141017 74 19235ft 381kts
15-Oct-20 19:54 38.767077 -120.011049 74 19373ft 375kts
15-Oct-20 19:55 38.793676 -119.879196 73 19404ft 390kts
15-Oct-20 19:56 38.853393 -119.774396 9 19409ft 387kts
15-Oct-20 19:57 38.961793 -119.770630 359 19431ft 395kts
15-Oct-20 19:58 39.071442 -119.770377 359 19151ft 389kts
15-Oct-20 19:59 39.168703 -119.761427 3 17078ft 349kts
15-Oct-20 20:00 39.265392 -119.752630 3 15066ft 306kts
15-Oct-20 20:01 39.355195 -119.745434 3 13185ft 355kts
15-Oct-20 20:02 39.443663 -119.735243 13 11653ft 285kts
15-Oct-20 20:03 39.511616 -119.715457 13 10525ft 227kts
15-Oct-20 20:04 39.567810 -119.699625 13 9617ft 211kts
15-Oct-20 20:05 39.628442 -119.682639 13 8952ft 220kts
15-Oct-20 20:06 39.681708 -119.700475 278 6323ft 251kts
15-Oct-20 20:08 39.663042 -119.770449 247 6188ft 189kts
15-Oct-20 20:09 39.645166 -119.821452 154 5588ft 181kts
15-Oct-20 20:10 39.582535 -119.785348 155 5847ft 278kts
15-Oct-20 20:11 39.528269 -119.766899 177 4669ft 157kts
15-Oct-20 20:12 39.497700 -119.766611 156 4422ft 21kts
15-Oct-20 20:13 39.497347 -119.759244 92 4422ft 20kts

Navigation Log

Ident Type
Flight plan parsing failed, navigation log unavailable